createdAt,value
2022-11-05T00:02:23.852Z,4.69
2022-11-05T00:05:09.027Z,4.81
2022-11-05T00:07:58.474Z,4.76
2022-11-05T00:10:28.622Z,4.75
2022-11-05T00:13:16.134Z,4.79
2022-11-05T00:16:01.317Z,4.78
2022-11-05T00:18:30.825Z,4.70
2022-11-05T00:20:58.780Z,4.76
2022-11-05T00:23:43.748Z,4.75
2022-11-05T00:26:13.097Z,4.68
2022-11-05T00:28:43.801Z,4.69
2022-11-05T00:31:13.677Z,4.80
2022-11-05T00:33:44.098Z,4.94
2022-11-05T00:36:12.300Z,4.84
2022-11-05T00:38:40.041Z,4.78
2022-11-05T00:41:07.866Z,4.86
2022-11-05T00:43:53.274Z,4.88
2022-11-05T00:46:21.021Z,4.90
2022-11-05T00:49:07.550Z,4.82
2022-11-05T00:51:35.323Z,4.89
2022-11-05T00:54:03.174Z,4.74
2022-11-05T00:56:30.936Z,4.80
2022-11-05T00:58:58.847Z,4.79
2022-11-05T01:01:26.691Z,4.56
2022-11-05T01:03:55.950Z,4.81
2022-11-05T01:06:23.798Z,4.82
2022-11-05T01:08:51.615Z,4.69
2022-11-05T01:11:33.971Z,4.73
2022-11-05T01:14:02.651Z,4.61
2022-11-05T01:16:30.790Z,4.53
2022-11-05T01:19:00.666Z,4.57
2022-11-05T01:21:32.423Z,4.34
2022-11-05T01:24:00.591Z,4.41
2022-11-05T01:26:28.538Z,4.54
2022-11-05T01:28:58.024Z,4.58
2022-11-05T01:31:26.030Z,4.47
2022-11-05T01:33:53.857Z,4.56
2022-11-05T01:36:23.296Z,4.46
2022-11-05T01:38:51.164Z,4.52
2022-11-05T01:41:19.229Z,4.48
2022-11-05T01:43:49.009Z,4.49
2022-11-05T01:46:21.090Z,4.45
2022-11-05T01:48:55.202Z,4.23
2022-11-05T01:51:28.394Z,4.26
2022-11-05T01:54:01.475Z,4.26
2022-11-05T01:56:34.727Z,4.25
2022-11-05T01:59:07.548Z,4.34
2022-11-05T02:01:35.868Z,4.21
2022-11-05T02:04:09.752Z,4.21
2022-11-05T02:06:46.015Z,4.29
2022-11-05T02:09:19.934Z,4.17
2022-11-05T02:11:48.110Z,4.19
2022-11-05T02:14:15.853Z,4.09
2022-11-05T02:16:49.971Z,4.06
2022-11-05T02:19:46.269Z,4.01
2022-11-05T02:22:45.802Z,3.84
2022-11-05T02:25:36.129Z,3.91
2022-11-05T02:28:25.087Z,3.95
2022-11-05T02:30:59.185Z,3.94
2022-11-05T02:33:36.342Z,3.69
2022-11-05T02:36:20.535Z,3.78
2022-11-05T02:38:59.770Z,3.83
2022-11-05T02:41:35.198Z,3.63
2022-11-05T02:44:15.632Z,3.72
2022-11-05T02:46:51.698Z,3.80
2022-11-05T02:49:33.480Z,3.53
2022-11-05T02:52:07.480Z,3.62
2022-11-05T02:54:39.472Z,3.77
2022-11-05T02:57:08.013Z,3.72
2022-11-05T02:59:35.822Z,3.80
2022-11-05T03:02:06.407Z,3.73
2022-11-05T03:04:34.764Z,3.66
2022-11-05T03:07:16.787Z,3.67
2022-11-05T03:10:31.913Z,3.70
2022-11-05T03:13:09.435Z,3.68
2022-11-05T03:15:49.285Z,3.77
2022-11-05T03:18:26.513Z,3.65
2022-11-05T03:20:59.979Z,3.87
2022-11-05T03:23:32.195Z,3.74
2022-11-05T03:26:06.523Z,3.85
2022-11-05T03:28:39.104Z,4.08
2022-11-05T03:31:09.003Z,4.10
2022-11-05T03:33:40.461Z,4.15
2022-11-05T03:36:13.990Z,4.19
2022-11-05T03:38:45.559Z,4.22
2022-11-05T03:41:16.797Z,4.33
2022-11-05T03:43:50.370Z,4.51
2022-11-05T03:46:22.602Z,4.59
2022-11-05T03:48:55.570Z,4.56
2022-11-05T03:51:33.478Z,4.83
2022-11-05T03:54:03.631Z,4.79
2022-11-05T03:56:37.414Z,4.79
2022-11-05T03:59:07.616Z,4.56
2022-11-05T04:01:37.921Z,4.72
2022-11-05T04:04:08.367Z,4.78
2022-11-05T04:06:53.980Z,4.68
2022-11-05T04:09:39.614Z,4.74
2022-11-05T04:12:24.856Z,4.75
2022-11-05T04:14:52.577Z,4.94
2022-11-05T04:17:19.417Z,4.92
2022-11-05T04:20:06.039Z,4.85
2022-11-05T04:22:52.734Z,4.80
2022-11-05T04:25:22.094Z,4.87
2022-11-05T04:27:50.332Z,4.93
2022-11-05T04:30:19.304Z,4.97
2022-11-05T04:33:01.789Z,4.97
2022-11-05T04:35:33.163Z,5.13
2022-11-05T04:38:01.010Z,5.13
2022-11-05T04:40:29.141Z,5.05
2022-11-05T04:42:57.415Z,5.03
2022-11-05T04:45:26.129Z,4.87
2022-11-05T04:47:54.000Z,4.87
2022-11-05T04:50:22.473Z,4.96
2022-11-05T04:52:51.739Z,4.91
2022-11-05T04:55:21.241Z,4.95
2022-11-05T04:57:50.437Z,5.08
2022-11-05T05:00:19.621Z,5.17
2022-11-05T05:02:47.726Z,5.29
2022-11-05T05:05:16.130Z,5.14
2022-11-05T05:07:44.149Z,5.21
2022-11-05T05:10:13.681Z,5.13
2022-11-05T05:12:41.586Z,5.04
2022-11-05T05:15:09.712Z,5.00
2022-11-05T05:17:37.584Z,4.99
2022-11-05T05:20:23.330Z,5.07
2022-11-05T05:22:54.642Z,5.07
2022-11-05T05:25:24.217Z,5.27
2022-11-05T05:27:52.147Z,5.28
2022-11-05T05:30:20.095Z,5.20
2022-11-05T05:32:48.278Z,5.13
2022-11-05T05:35:16.201Z,5.25
2022-11-05T05:37:44.309Z,5.18
2022-11-05T05:40:12.789Z,5.30
2022-11-05T05:42:43.575Z,5.16
2022-11-05T05:45:13.375Z,5.41
2022-11-05T05:47:41.151Z,5.33
2022-11-05T05:50:09.338Z,5.39
2022-11-05T05:52:37.297Z,5.40
2022-11-05T05:55:05.581Z,5.40
2022-11-05T05:57:33.383Z,5.33
2022-11-05T06:00:02.629Z,5.31
2022-11-05T06:02:39.541Z,5.27
2022-11-05T06:05:08.021Z,5.32
2022-11-05T06:07:37.451Z,5.33
2022-11-05T06:10:07.287Z,5.44
2022-11-05T06:12:35.094Z,5.44
2022-11-05T06:15:04.953Z,5.40
2022-11-05T06:17:34.051Z,5.51
2022-11-05T06:20:01.865Z,5.53
2022-11-05T06:22:30.220Z,5.43
2022-11-05T06:24:58.128Z,5.41
2022-11-05T06:27:25.941Z,5.52
2022-11-05T06:29:53.968Z,5.54
2022-11-05T06:32:23.152Z,5.61
2022-11-05T06:34:50.968Z,5.58
2022-11-05T06:37:18.753Z,5.46
2022-11-05T06:39:46.539Z,5.62
2022-11-05T06:42:18.957Z,5.79
2022-11-05T06:44:47.618Z,5.66
2022-11-05T06:47:15.397Z,5.88
2022-11-05T06:49:44.486Z,5.86
2022-11-05T06:52:12.688Z,5.85
2022-11-05T06:54:40.805Z,5.92
2022-11-05T06:57:09.821Z,5.97
2022-11-05T06:59:37.697Z,5.99
2022-11-05T07:02:05.872Z,6.01
2022-11-05T07:04:34.281Z,5.97
2022-11-05T07:07:03.406Z,6.09
2022-11-05T07:09:31.145Z,6.01
2022-11-05T07:11:58.853Z,6.01
2022-11-05T07:14:26.534Z,6.00
2022-11-05T07:16:54.198Z,5.95
2022-11-05T07:19:22.152Z,6.05
2022-11-05T07:21:50.868Z,5.93
2022-11-05T07:24:19.980Z,6.22
2022-11-05T07:26:50.042Z,6.09
2022-11-05T07:29:17.810Z,6.23
2022-11-05T07:31:46.914Z,6.28
2022-11-05T07:34:14.638Z,6.27
2022-11-05T07:36:42.393Z,6.32
2022-11-05T07:39:10.122Z,6.39
2022-11-05T07:41:39.264Z,6.37
2022-11-05T07:44:07.226Z,6.46
2022-11-05T07:46:35.162Z,6.47
2022-11-05T07:49:03.005Z,6.66
2022-11-05T07:51:30.707Z,6.65
2022-11-05T07:53:58.425Z,6.58
2022-11-05T07:56:26.156Z,6.62
2022-11-05T07:58:55.265Z,6.89
2022-11-05T08:01:23.241Z,6.75
2022-11-05T08:03:51.099Z,6.79
2022-11-05T08:06:18.842Z,6.84
2022-11-05T08:08:46.581Z,6.75
2022-11-05T08:11:14.730Z,6.71
2022-11-05T08:13:44.003Z,6.78
2022-11-05T08:16:13.092Z,6.83
2022-11-05T08:18:40.799Z,6.83
2022-11-05T08:21:09.482Z,6.96
2022-11-05T08:23:38.719Z,6.97
2022-11-05T08:26:06.841Z,6.89
2022-11-05T08:28:34.640Z,7.06
2022-11-05T08:31:02.436Z,6.96
2022-11-05T08:33:33.086Z,6.95
2022-11-05T08:36:03.637Z,7.03
2022-11-05T08:38:31.480Z,7.05
2022-11-05T08:40:59.452Z,7.23
2022-11-05T08:43:27.413Z,7.27
2022-11-05T08:45:55.304Z,7.28
2022-11-05T08:48:23.150Z,7.26
2022-11-05T08:50:52.336Z,7.32
2022-11-05T08:53:20.246Z,7.33
2022-11-05T08:55:50.018Z,7.43
2022-11-05T08:58:20.102Z,7.37
2022-11-05T09:00:50.331Z,7.30
2022-11-05T09:03:19.129Z,7.18
2022-11-05T09:05:47.516Z,7.29
2022-11-05T09:08:18.870Z,7.14
2022-11-05T09:10:47.557Z,7.05
2022-11-05T09:13:19.499Z,6.94
2022-11-05T09:15:48.707Z,7.12
2022-11-05T09:18:17.094Z,7.21
2022-11-05T09:20:45.266Z,7.33
2022-11-05T09:23:15.140Z,7.37
2022-11-05T09:25:44.862Z,7.36
2022-11-05T09:28:16.875Z,7.34
2022-11-05T09:30:46.739Z,7.43
2022-11-05T09:33:15.283Z,7.45
2022-11-05T09:35:43.553Z,7.32
2022-11-05T09:38:11.884Z,7.31
2022-11-05T09:40:47.395Z,7.21
2022-11-05T09:43:19.826Z,7.38
2022-11-05T09:45:50.303Z,7.20
2022-11-05T09:48:21.261Z,7.35
2022-11-05T09:50:50.087Z,7.31
2022-11-05T09:53:20.211Z,7.33
2022-11-05T09:55:50.881Z,7.30
2022-11-05T09:58:28.517Z,7.36
2022-11-05T10:00:58.172Z,7.34
2022-11-05T10:03:30.416Z,7.33
2022-11-05T10:06:06.437Z,7.26
2022-11-05T10:08:39.205Z,7.38
2022-11-05T10:11:12.776Z,7.44
2022-11-05T10:13:45.506Z,7.43
2022-11-05T10:16:22.889Z,7.40
2022-11-05T10:18:55.247Z,7.48
2022-11-05T10:21:44.158Z,7.42
2022-11-05T10:24:15.586Z,7.59
2022-11-05T10:26:48.979Z,7.75
2022-11-05T10:29:23.541Z,7.75
2022-11-05T10:31:54.009Z,7.90
2022-11-05T10:34:24.834Z,7.95
2022-11-05T10:36:54.224Z,8.24
2022-11-05T10:39:23.385Z,8.26
2022-11-05T10:42:27.489Z,8.45
2022-11-05T10:45:03.024Z,8.28
2022-11-05T10:47:45.886Z,8.31
2022-11-05T10:50:17.487Z,8.45
2022-11-05T10:52:57.957Z,8.66
2022-11-05T10:55:29.067Z,8.86
2022-11-05T10:58:09.822Z,8.67
2022-11-05T11:00:38.161Z,8.67
2022-11-05T11:03:27.114Z,8.66
2022-11-05T11:06:01.382Z,8.60
2022-11-05T11:08:30.083Z,8.47
2022-11-05T11:11:00.434Z,8.36
2022-11-05T11:13:47.429Z,8.13
2022-11-05T11:16:17.391Z,8.20
2022-11-05T11:18:45.212Z,8.11
2022-11-05T11:21:16.693Z,7.99
2022-11-05T11:23:54.255Z,7.93
2022-11-05T11:26:22.839Z,8.07
2022-11-05T11:28:57.172Z,7.93
2022-11-05T11:31:27.040Z,8.11
2022-11-05T11:33:59.857Z,7.92
2022-11-05T11:36:33.767Z,7.83
2022-11-05T11:39:04.301Z,7.86
2022-11-05T11:41:35.020Z,7.82
2022-11-05T11:44:08.819Z,7.83
2022-11-05T11:46:37.132Z,7.77
2022-11-05T11:49:07.597Z,7.74
2022-11-05T11:51:40.498Z,7.67
2022-11-05T11:54:20.904Z,7.62
2022-11-05T11:56:49.826Z,7.56
2022-11-05T11:59:46.659Z,7.68
2022-11-05T12:03:01.862Z,7.70
2022-11-05T12:05:43.485Z,7.69
2022-11-05T12:08:42.883Z,7.73
2022-11-05T12:11:19.248Z,7.45
2022-11-05T12:14:00.361Z,7.42
2022-11-05T12:16:58.716Z,7.50
2022-11-05T12:19:43.069Z,7.53
2022-11-05T12:22:18.977Z,7.53
2022-11-05T12:25:12.160Z,7.56
2022-11-05T12:27:58.205Z,7.55
2022-11-05T12:30:48.024Z,7.51
2022-11-05T12:33:26.244Z,7.55
2022-11-05T12:36:07.508Z,7.48
2022-11-05T12:38:55.531Z,7.67
2022-11-05T12:41:28.445Z,7.66
2022-11-05T12:44:15.403Z,7.62
2022-11-05T12:46:53.544Z,7.50
2022-11-05T12:49:39.704Z,7.62
2022-11-05T12:52:27.021Z,7.65
2022-11-05T12:55:04.447Z,7.57
2022-11-05T12:57:39.843Z,7.56
2022-11-05T13:00:15.510Z,7.51
2022-11-05T13:02:53.588Z,7.50
2022-11-05T13:05:30.880Z,7.53
2022-11-05T13:08:04.247Z,7.46
2022-11-05T13:10:37.890Z,7.36
2022-11-05T13:13:12.786Z,7.47
2022-11-05T13:15:48.804Z,7.34
2022-11-05T13:18:21.877Z,7.44
2022-11-05T13:20:54.405Z,7.62
2022-11-05T13:23:30.607Z,7.57
2022-11-05T13:26:04.056Z,7.51
2022-11-05T13:28:39.848Z,7.44
2022-11-05T13:31:13.533Z,7.46
2022-11-05T13:33:44.938Z,7.59
2022-11-05T13:36:35.162Z,7.50
2022-11-05T13:39:11.278Z,7.51
2022-11-05T13:41:52.223Z,7.45
2022-11-05T13:44:45.007Z,7.55
2022-11-05T13:47:44.166Z,7.54
2022-11-05T13:50:32.166Z,7.44
2022-11-05T13:53:18.349Z,7.60
2022-11-05T13:55:58.084Z,7.46
2022-11-05T13:58:56.438Z,7.54
2022-11-05T14:01:43.025Z,7.53
2022-11-05T14:04:17.960Z,7.47
2022-11-05T14:06:46.001Z,7.41
2022-11-05T14:09:21.249Z,7.37
2022-11-05T14:11:55.143Z,7.37
2022-11-05T14:14:25.027Z,7.40
2022-11-05T14:17:31.973Z,7.54
2022-11-05T14:20:26.343Z,7.48
2022-11-05T14:22:54.466Z,7.47
2022-11-05T14:25:55.781Z,7.48
2022-11-05T14:28:47.476Z,7.46
2022-11-05T14:31:54.641Z,7.51
2022-11-05T14:34:43.512Z,7.40
2022-11-05T14:37:31.746Z,7.36
2022-11-05T14:40:19.044Z,7.37
2022-11-05T14:42:52.620Z,7.37
2022-11-05T14:45:28.146Z,7.28
2022-11-05T14:47:58.417Z,7.19
2022-11-05T14:50:35.796Z,7.19
2022-11-05T14:53:12.359Z,7.18
2022-11-05T14:55:44.648Z,7.19
2022-11-05T14:58:35.342Z,7.28
2022-11-05T15:01:05.090Z,7.25
2022-11-05T15:03:46.696Z,7.08
2022-11-05T15:06:28.777Z,7.28
2022-11-05T15:09:21.924Z,7.30
2022-11-05T15:12:15.945Z,7.23
2022-11-05T15:14:58.295Z,7.23
2022-11-05T15:17:29.922Z,7.15
2022-11-05T15:20:07.838Z,7.09
2022-11-05T15:22:40.990Z,7.11
2022-11-05T15:25:17.979Z,7.10
2022-11-05T15:28:03.902Z,7.18
2022-11-05T15:30:34.023Z,7.22
2022-11-05T15:33:19.427Z,7.17
2022-11-05T15:35:47.244Z,7.18
2022-11-05T15:38:30.494Z,7.13
2022-11-05T15:41:00.238Z,7.10
2022-11-05T15:43:28.165Z,7.15
2022-11-05T15:46:16.595Z,7.23
2022-11-05T15:48:47.237Z,7.09
2022-11-05T15:51:15.046Z,7.18
2022-11-05T15:56:50.900Z,7.11
2022-11-05T15:59:21.437Z,6.94
2022-11-05T16:01:53.739Z,6.91
2022-11-05T16:04:24.226Z,6.95
2022-11-05T16:06:54.801Z,6.99
2022-11-05T16:09:24.325Z,6.97
2022-11-05T16:12:12.208Z,6.92
2022-11-05T16:14:40.124Z,6.89
2022-11-05T16:17:19.692Z,6.88
2022-11-05T16:19:48.074Z,6.67
2022-11-05T16:22:16.205Z,6.71
2022-11-05T16:24:44.453Z,6.75
2022-11-05T16:27:19.704Z,6.71
2022-11-05T16:29:51.266Z,6.67
2022-11-05T16:32:29.852Z,6.87
2022-11-05T16:35:00.862Z,6.94
2022-11-05T16:37:30.810Z,6.73
2022-11-05T16:39:58.562Z,6.83
2022-11-05T16:42:40.851Z,6.96
2022-11-05T16:45:12.659Z,6.97
2022-11-05T16:47:42.656Z,6.92
2022-11-05T16:50:16.717Z,6.86
2022-11-05T16:52:46.126Z,6.80
2022-11-05T16:55:14.563Z,6.58
2022-11-05T16:57:43.903Z,6.65
2022-11-05T17:00:15.137Z,6.75
2022-11-05T17:02:47.276Z,6.68
2022-11-05T17:05:22.568Z,6.75
2022-11-05T17:07:50.821Z,6.67
2022-11-05T17:10:18.735Z,6.57
2022-11-05T17:12:47.231Z,6.71
2022-11-05T17:15:20.355Z,6.71
2022-11-05T17:17:49.802Z,6.56
2022-11-05T17:20:27.292Z,6.57
2022-11-05T17:22:55.674Z,6.58
2022-11-05T17:25:23.666Z,6.53
2022-11-05T17:27:51.725Z,6.57
2022-11-05T17:30:20.026Z,6.62
2022-11-05T17:32:49.468Z,6.46
2022-11-05T17:35:17.654Z,6.47
2022-11-05T17:37:45.600Z,6.35
2022-11-05T17:40:17.017Z,6.51
2022-11-05T17:42:46.706Z,6.51
2022-11-05T17:45:15.432Z,6.46
2022-11-05T17:47:43.322Z,6.47
2022-11-05T17:50:15.556Z,6.47
2022-11-05T17:52:43.693Z,6.32
2022-11-05T17:55:17.295Z,6.50
2022-11-05T17:57:46.959Z,6.46
2022-11-05T18:00:17.193Z,6.30
2022-11-05T18:02:46.155Z,6.38
2022-11-05T18:05:16.200Z,6.45
2022-11-05T18:07:44.453Z,6.35
2022-11-05T18:10:13.303Z,6.33
2022-11-05T18:12:41.661Z,6.37
2022-11-05T18:15:10.695Z,6.22
2022-11-05T18:17:39.120Z,6.39
2022-11-05T18:20:12.971Z,6.34
2022-11-05T18:22:47.398Z,6.28
2022-11-05T18:25:15.197Z,6.29
2022-11-05T18:27:43.145Z,6.32
2022-11-05T18:30:14.054Z,6.17
2022-11-05T18:32:42.607Z,6.25
2022-11-05T18:35:10.823Z,6.23
2022-11-05T18:37:39.600Z,6.29
2022-11-05T18:40:09.714Z,6.25
2022-11-05T18:42:37.519Z,6.12
2022-11-05T18:45:06.135Z,6.24
2022-11-05T18:47:34.038Z,6.32
2022-11-05T18:50:01.699Z,6.32
2022-11-05T18:52:31.518Z,6.37
2022-11-05T18:54:59.634Z,6.34
2022-11-05T18:57:29.529Z,6.28
2022-11-05T18:59:57.251Z,6.29
2022-11-05T19:02:25.030Z,6.29
2022-11-05T19:05:26.678Z,6.18
2022-11-05T19:07:41.067Z,6.23
2022-11-05T19:10:09.473Z,6.28
2022-11-05T19:12:39.225Z,5.96
2022-11-05T19:15:08.094Z,6.17
2022-11-05T19:17:36.176Z,6.23
2022-11-05T19:20:05.023Z,6.12
2022-11-05T19:22:33.118Z,6.16
2022-11-05T19:25:00.863Z,6.22
2022-11-05T19:27:28.568Z,6.28
2022-11-05T19:29:57.630Z,5.68
2022-11-05T19:32:25.345Z,6.15
2022-11-05T19:34:53.082Z,6.17
2022-11-05T19:37:20.810Z,6.09
2022-11-05T19:39:48.477Z,5.71
2022-11-05T19:42:16.233Z,5.74
2022-11-05T19:44:44.163Z,6.03
2022-11-05T19:47:13.203Z,6.12
2022-11-05T19:49:40.911Z,5.72
2022-11-05T19:52:08.650Z,6.03
2022-11-05T19:54:36.537Z,5.99
2022-11-05T19:57:06.292Z,5.41
2022-11-05T19:59:34.007Z,5.36
2022-11-05T20:02:01.891Z,5.88
2022-11-05T20:04:31.120Z,5.74
2022-11-05T20:06:58.863Z,5.75
2022-11-05T20:09:28.605Z,5.66
2022-11-05T20:11:57.113Z,5.42
2022-11-05T20:14:26.215Z,5.47
2022-11-05T20:16:54.566Z,5.38
2022-11-05T20:19:23.740Z,5.38
2022-11-05T20:21:53.191Z,5.34
2022-11-05T20:24:25.216Z,5.31
2022-11-05T20:26:54.129Z,5.26
2022-11-05T20:29:35.570Z,5.18
2022-11-05T20:32:04.366Z,5.08
2022-11-05T20:34:33.245Z,5.10
2022-11-05T20:37:02.619Z,4.99
2022-11-05T20:39:30.485Z,4.83
2022-11-05T20:42:00.413Z,4.78
2022-11-05T20:44:28.159Z,4.88
2022-11-05T20:46:56.240Z,4.89
2022-11-05T20:49:25.667Z,4.85
2022-11-05T20:51:55.155Z,4.86
2022-11-05T20:54:24.624Z,4.44
2022-11-05T20:56:52.517Z,4.16
2022-11-05T20:59:20.624Z,4.63
2022-11-05T21:01:51.388Z,4.67
2022-11-05T21:04:19.234Z,4.60
2022-11-05T21:06:46.935Z,4.34
2022-11-05T21:09:14.655Z,4.45
2022-11-05T21:12:01.330Z,4.58
2022-11-05T21:14:29.026Z,4.50
2022-11-05T21:16:56.823Z,4.64
2022-11-05T21:19:24.885Z,4.35
2022-11-05T21:21:52.649Z,4.63
2022-11-05T21:24:20.356Z,4.61
2022-11-05T21:26:50.308Z,4.20
2022-11-05T21:29:18.814Z,4.42
2022-11-05T21:31:47.135Z,4.55
2022-11-05T21:34:14.861Z,4.46
2022-11-05T21:36:42.602Z,3.71
2022-11-05T21:39:13.504Z,4.06
2022-11-05T21:41:42.585Z,4.20
2022-11-05T21:44:11.746Z,4.28
2022-11-05T21:46:39.744Z,4.21
2022-11-05T21:49:07.431Z,4.19
2022-11-05T21:51:52.499Z,4.19
2022-11-05T21:54:37.635Z,4.13
2022-11-05T21:57:23.286Z,4.14
2022-11-05T21:59:57.434Z,4.03
2022-11-05T22:02:28.360Z,4.02
2022-11-05T22:04:59.829Z,3.93
2022-11-05T22:07:29.678Z,3.77
2022-11-05T22:09:57.436Z,3.97
2022-11-05T22:12:25.815Z,3.88
2022-11-05T22:14:55.661Z,3.87
2022-11-05T22:17:24.823Z,3.84
2022-11-05T22:19:52.819Z,3.81
2022-11-05T22:22:20.537Z,3.60
2022-11-05T22:24:48.261Z,3.70
2022-11-05T22:27:18.823Z,3.56
2022-11-05T22:29:46.746Z,3.66
2022-11-05T22:32:16.817Z,3.64
2022-11-05T22:34:44.577Z,3.63
2022-11-05T22:37:13.526Z,3.63
2022-11-05T22:39:41.467Z,3.57
2022-11-05T22:42:09.261Z,3.45
2022-11-05T22:44:38.373Z,3.50
2022-11-05T22:47:06.824Z,3.41
2022-11-05T22:49:36.214Z,3.31
2022-11-05T22:52:04.104Z,3.25
2022-11-05T22:54:37.919Z,3.30
2022-11-05T22:57:06.960Z,3.36
2022-11-05T22:59:34.752Z,3.31
2022-11-05T23:02:08.252Z,3.32
2022-11-05T23:04:39.760Z,3.33
2022-11-05T23:07:27.884Z,3.23
2022-11-05T23:10:12.937Z,3.16
2022-11-05T23:12:43.077Z,3.09
2022-11-05T23:15:31.370Z,3.01
2022-11-05T23:18:16.735Z,3.10
2022-11-05T23:21:03.292Z,2.84
2022-11-05T23:23:48.401Z,3.09
2022-11-05T23:26:33.726Z,3.06
2022-11-05T23:29:01.448Z,3.07
2022-11-05T23:31:46.705Z,2.85
2022-11-05T23:34:14.419Z,3.06
2022-11-05T23:37:00.814Z,3.03
2022-11-05T23:39:28.507Z,3.00
2022-11-05T23:42:13.779Z,2.92
2022-11-05T23:44:58.949Z,2.98
2022-11-05T23:47:44.079Z,2.79
2022-11-05T23:50:12.148Z,2.91
2022-11-05T23:52:41.265Z,2.39
2022-11-05T23:55:30.225Z,2.83
2022-11-05T23:57:58.057Z,2.88
